sensor_id;sensor_type;location;lat;lon;timestamp;pressure;altitude;pressure_sealevel;temperature;humidity
74529;BME280;63009;52.584;5.932;2023-07-30T00:01:46;100763.00;;;15.59;100.00
74529;BME280;63009;52.584;5.932;2023-07-30T00:04:12;100768.84;;;15.64;100.00
74529;BME280;63009;52.584;5.932;2023-07-30T00:06:37;100771.50;;;15.64;100.00
74529;BME280;63009;52.584;5.932;2023-07-30T00:09:02;100783.13;;;15.63;100.00
74529;BME280;63009;52.584;5.932;2023-07-30T00:11:29;100767.97;;;15.53;100.00
74529;BME280;63009;52.584;5.932;2023-07-30T00:13:54;100774.16;;;15.53;100.00
74529;BME280;63009;52.584;5.932;2023-07-30T00:16:19;100766.28;;;15.40;100.00
74529;BME280;63009;52.584;5.932;2023-07-30T00:18:44;100766.75;;;15.45;100.00
74529;BME280;63009;52.584;5.932;2023-07-30T00:21:10;100771.34;;;15.43;100.00
74529;BME280;63009;52.584;5.932;2023-07-30T00:23:35;100759.72;;;15.33;100.00
74529;BME280;63009;52.584;5.932;2023-07-30T00:26:01;100766.78;;;15.34;100.00
74529;BME280;63009;52.584;5.932;2023-07-30T00:28:26;100762.06;;;15.27;100.00
74529;BME280;63009;52.584;5.932;2023-07-30T00:30:51;100758.16;;;15.20;100.00
74529;BME280;63009;52.584;5.932;2023-07-30T00:33:16;100776.22;;;15.27;100.00
74529;BME280;63009;52.584;5.932;2023-07-30T00:35:42;100761.59;;;15.22;100.00
74529;BME280;63009;52.584;5.932;2023-07-30T00:38:07;100770.63;;;15.19;100.00
74529;BME280;63009;52.584;5.932;2023-07-30T00:40:32;100773.31;;;15.30;100.00
74529;BME280;63009;52.584;5.932;2023-07-30T00:42:58;100781.41;;;15.29;100.00
74529;BME280;63009;52.584;5.932;2023-07-30T00:45:23;100770.03;;;15.27;100.00
74529;BME280;63009;52.584;5.932;2023-07-30T00:47:48;100778.03;;;15.27;100.00
74529;BME280;63009;52.584;5.932;2023-07-30T00:50:15;100769.69;;;15.20;100.00
74529;BME280;63009;52.584;5.932;2023-07-30T00:52:42;100765.56;;;15.27;100.00
74529;BME280;63009;52.584;5.932;2023-07-30T00:55:08;100771.00;;;15.37;100.00
74529;BME280;63009;52.584;5.932;2023-07-30T00:57:36;100766.66;;;15.36;100.00
74529;BME280;63009;52.584;5.932;2023-07-30T01:00:02;100775.13;;;15.41;100.00
74529;BME280;63009;52.584;5.932;2023-07-30T01:02:31;100772.94;;;15.46;100.00
74529;BME280;63009;52.584;5.932;2023-07-30T01:04:56;100763.50;;;15.42;100.00
74529;BME280;63009;52.584;5.932;2023-07-30T01:07:22;100777.19;;;15.49;100.00
74529;BME280;63009;52.584;5.932;2023-07-30T01:09:47;100775.25;;;15.51;100.00
74529;BME280;63009;52.584;5.932;2023-07-30T01:12:13;100770.38;;;15.44;100.00
74529;BME280;63009;52.584;5.932;2023-07-30T01:14:39;100766.63;;;15.47;100.00
74529;BME280;63009;52.584;5.932;2023-07-30T01:17:05;100774.16;;;15.42;100.00
74529;BME280;63009;52.584;5.932;2023-07-30T01:19:30;100766.66;;;15.36;100.00
74529;BME280;63009;52.584;5.932;2023-07-30T01:21:56;100774.75;;;15.45;100.00
74529;BME280;63009;52.584;5.932;2023-07-30T01:24:21;100777.53;;;15.55;100.00
74529;BME280;63009;52.584;5.932;2023-07-30T01:26:51;100777.91;;;15.51;100.00
74529;BME280;63009;52.584;5.932;2023-07-30T01:29:23;100775.97;;;15.53;100.00
74529;BME280;63009;52.584;5.932;2023-07-30T01:31:55;100774.03;;;15.55;100.00
74529;BME280;63009;52.584;5.932;2023-07-30T01:34:23;100780.56;;;15.51;100.00
74529;BME280;63009;52.584;5.932;2023-07-30T01:36:49;100790.13;;;15.53;100.00
74529;BME280;63009;52.584;5.932;2023-07-30T01:39:15;100782.25;;;15.52;100.00
74529;BME280;63009;52.584;5.932;2023-07-30T01:41:40;100783.44;;;15.48;100.00
74529;BME280;63009;52.584;5.932;2023-07-30T01:44:06;100785.53;;;15.55;100.00
74529;BME280;63009;52.584;5.932;2023-07-30T01:46:31;100770.13;;;15.48;100.00
74529;BME280;63009;52.584;5.932;2023-07-30T01:48:56;100791.84;;;15.65;100.00
74529;BME280;63009;52.584;5.932;2023-07-30T01:51:22;100790.63;;;15.69;100.00
74529;BME280;63009;52.584;5.932;2023-07-30T01:53:47;100786.97;;;15.70;100.00
74529;BME280;63009;52.584;5.932;2023-07-30T01:56:12;100788.81;;;15.70;100.00
74529;BME280;63009;52.584;5.932;2023-07-30T01:58:37;100784.44;;;15.69;100.00
74529;BME280;63009;52.584;5.932;2023-07-30T02:01:03;100775.84;;;15.65;100.00
74529;BME280;63009;52.584;5.932;2023-07-30T02:03:28;100786.84;;;15.72;100.00
74529;BME280;63009;52.584;5.932;2023-07-30T02:05:53;100772.69;;;15.71;100.00
74529;BME280;63009;52.584;5.932;2023-07-30T02:08:18;100789.66;;;15.70;100.00
74529;BME280;63009;52.584;5.932;2023-07-30T02:10:44;100784.31;;;15.70;100.00
74529;BME280;63009;52.584;5.932;2023-07-30T02:13:09;100781.31;;;15.64;100.00
74529;BME280;63009;52.584;5.932;2023-07-30T02:15:34;100785.19;;;15.60;100.00
74529;BME280;63009;52.584;5.932;2023-07-30T02:18:04;100788.78;;;15.59;100.00
74529;BME280;63009;52.584;5.932;2023-07-30T02:20:29;100795.69;;;15.61;100.00
74529;BME280;63009;52.584;5.932;2023-07-30T02:22:55;100778.13;;;15.48;100.00
74529;BME280;63009;52.584;5.932;2023-07-30T02:25:20;100792.78;;;15.42;100.00
74529;BME280;63009;52.584;5.932;2023-07-30T02:27:45;100799.22;;;15.39;100.00
74529;BME280;63009;52.584;5.932;2023-07-30T02:30:10;100795.94;;;15.36;100.00
74529;BME280;63009;52.584;5.932;2023-07-30T02:32:36;100784.56;;;15.45;100.00
74529;BME280;63009;52.584;5.932;2023-07-30T02:35:01;100792.06;;;15.40;100.00
74529;BME280;63009;52.584;5.932;2023-07-30T02:37:26;100787.72;;;15.39;100.00
74529;BME280;63009;52.584;5.932;2023-07-30T02:39:51;100780.31;;;15.42;100.00
74529;BME280;63009;52.584;5.932;2023-07-30T02:42:17;100776.94;;;15.40;100.00
74529;BME280;63009;52.584;5.932;2023-07-30T02:44:42;100790.13;;;15.42;100.00
74529;BME280;63009;52.584;5.932;2023-07-30T02:47:07;100772.47;;;15.41;100.00
74529;BME280;63009;52.584;5.932;2023-07-30T02:49:32;100784.69;;;15.43;100.00
74529;BME280;63009;52.584;5.932;2023-07-30T02:51:58;100785.78;;;15.41;100.00
74529;BME280;63009;52.584;5.932;2023-07-30T02:54:23;100788.56;;;15.51;100.00
74529;BME280;63009;52.584;5.932;2023-07-30T02:56:48;100783.44;;;15.48;100.00
74529;BME280;63009;52.584;5.932;2023-07-30T02:59:13;100784.94;;;15.52;100.00
74529;BME280;63009;52.584;5.932;2023-07-30T03:01:39;100783.72;;;15.44;100.00
74529;BME280;63009;52.584;5.932;2023-07-30T03:04:04;100794.34;;;15.44;100.00
74529;BME280;63009;52.584;5.932;2023-07-30T03:06:29;100777.66;;;15.42;100.00
74529;BME280;63009;52.584;5.932;2023-07-30T03:08:55;100786.75;;;15.51;100.00
74529;BME280;63009;52.584;5.932;2023-07-30T03:11:22;100781.53;;;15.50;100.00
74529;BME280;63009;52.584;5.932;2023-07-30T03:13:47;100779.09;;;15.47;100.00
74529;BME280;63009;52.584;5.932;2023-07-30T03:16:12;100786.03;;;15.49;100.00
74529;BME280;63009;52.584;5.932;2023-07-30T03:18:37;100784.31;;;15.48;100.00
74529;BME280;63009;52.584;5.932;2023-07-30T03:21:03;100799.44;;;15.48;100.00
74529;BME280;63009;52.584;5.932;2023-07-30T03:23:28;100791.69;;;15.44;100.00
74529;BME280;63009;52.584;5.932;2023-07-30T03:25:53;100789.75;;;15.47;100.00
74529;BME280;63009;52.584;5.932;2023-07-30T03:28:19;100775.25;;;15.39;100.00
74529;BME280;63009;52.584;5.932;2023-07-30T03:30:44;100797.88;;;15.45;100.00
74529;BME280;63009;52.584;5.932;2023-07-30T03:33:09;100789.75;;;15.47;100.00
74529;BME280;63009;52.584;5.932;2023-07-30T03:35:35;100795.31;;;15.43;100.00
74529;BME280;63009;52.584;5.932;2023-07-30T03:38:00;100782.38;;;15.39;100.00
74529;BME280;63009;52.584;5.932;2023-07-30T03:40:25;100796.44;;;15.41;100.00
74529;BME280;63009;52.584;5.932;2023-07-30T03:42:51;100788.44;;;15.41;100.00
74529;BME280;63009;52.584;5.932;2023-07-30T03:45:16;100783.47;;;15.36;100.00
74529;BME280;63009;52.584;5.932;2023-07-30T03:47:41;100789.78;;;15.35;100.00
74529;BME280;63009;52.584;5.932;2023-07-30T03:50:07;100779.22;;;15.34;100.00
74529;BME280;63009;52.584;5.932;2023-07-30T03:52:32;100795.44;;;15.31;100.00
74529;BME280;63009;52.584;5.932;2023-07-30T03:54:57;100783.59;;;15.24;100.00
74529;BME280;63009;52.584;5.932;2023-07-30T03:57:23;100793.16;;;15.26;100.00
74529;BME280;63009;52.584;5.932;2023-07-30T03:59:48;100801.03;;;15.28;100.00
74529;BME280;63009;52.584;5.932;2023-07-30T04:02:13;100802.47;;;15.32;100.00
74529;BME280;63009;52.584;5.932;2023-07-30T04:04:41;100804.91;;;15.24;100.00
74529;BME280;63009;52.584;5.932;2023-07-30T04:07:08;100807.81;;;15.21;100.00
74529;BME280;63009;52.584;5.932;2023-07-30T04:09:34;100798.59;;;15.25;100.00
74529;BME280;63009;52.584;5.932;2023-07-30T04:11:59;100805.63;;;15.26;100.00
74529;BME280;63009;52.584;5.932;2023-07-30T04:14:24;100800.44;;;15.24;100.00
74529;BME280;63009;52.584;5.932;2023-07-30T04:16:49;100801.41;;;15.34;100.00
74529;BME280;63009;52.584;5.932;2023-07-30T04:19:15;100799.81;;;15.21;100.00
74529;BME280;63009;52.584;5.932;2023-07-30T04:21:40;100799.56;;;15.24;100.00
74529;BME280;63009;52.584;5.932;2023-07-30T04:24:05;100803.22;;;15.23;100.00
74529;BME280;63009;52.584;5.932;2023-07-30T04:26:30;100802.25;;;15.35;100.00
74529;BME280;63009;52.584;5.932;2023-07-30T04:28:56;100804.16;;;15.33;100.00
74529;BME280;63009;52.584;5.932;2023-07-30T04:31:21;100809.88;;;15.39;100.00
74529;BME280;63009;52.584;5.932;2023-07-30T04:33:46;100800.66;;;15.32;100.00
74529;BME280;63009;52.584;5.932;2023-07-30T04:36:11;100797.88;;;15.34;100.00
74529;BME280;63009;52.584;5.932;2023-07-30T04:38:37;100807.19;;;15.39;100.00
74529;BME280;63009;52.584;5.932;2023-07-30T04:41:02;100808.06;;;15.40;100.00
74529;BME280;63009;52.584;5.932;2023-07-30T04:43:28;100803.44;;;15.42;100.00
74529;BME280;63009;52.584;5.932;2023-07-30T04:45:53;100806.09;;;15.42;100.00
74529;BME280;63009;52.584;5.932;2023-07-30T04:48:19;100800.78;;;15.42;100.00
74529;BME280;63009;52.584;5.932;2023-07-30T04:50:44;100810.72;;;15.40;100.00
74529;BME280;63009;52.584;5.932;2023-07-30T04:53:09;100804.53;;;15.39;100.00
74529;BME280;63009;52.584;5.932;2023-07-30T04:55:34;100807.56;;;15.46;100.00
74529;BME280;63009;52.584;5.932;2023-07-30T04:58:00;100813.25;;;15.53;100.00
74529;BME280;63009;52.584;5.932;2023-07-30T05:00:25;100818.72;;;15.51;100.00
74529;BME280;63009;52.584;5.932;2023-07-30T05:02:50;100818.47;;;15.54;100.00
74529;BME280;63009;52.584;5.932;2023-07-30T05:05:15;100809.16;;;15.60;100.00
74529;BME280;63009;52.584;5.932;2023-07-30T05:07:41;100816.38;;;15.58;100.00
74529;BME280;63009;52.584;5.932;2023-07-30T05:10:06;100814.81;;;15.55;100.00
74529;BME280;63009;52.584;5.932;2023-07-30T05:12:35;100817.25;;;15.58;100.00
74529;BME280;63009;52.584;5.932;2023-07-30T05:15:00;100816.28;;;15.59;100.00
74529;BME280;63009;52.584;5.932;2023-07-30T05:17:25;100818.22;;;15.57;100.00
74529;BME280;63009;52.584;5.932;2023-07-30T05:19:51;100827.88;;;15.58;100.00
74529;BME280;63009;52.584;5.932;2023-07-30T05:22:16;100835.28;;;15.55;100.00
74529;BME280;63009;52.584;5.932;2023-07-30T05:24:41;100837.59;;;15.59;100.00
74529;BME280;63009;52.584;5.932;2023-07-30T05:27:06;100829.50;;;15.61;100.00
74529;BME280;63009;52.584;5.932;2023-07-30T05:29:32;100842.81;;;15.72;100.00
74529;BME280;63009;52.584;5.932;2023-07-30T05:31:57;100835.19;;;15.67;100.00
74529;BME280;63009;52.584;5.932;2023-07-30T05:34:22;100841.13;;;15.71;100.00
74529;BME280;63009;52.584;5.932;2023-07-30T05:36:47;100844.38;;;15.74;100.00
74529;BME280;63009;52.584;5.932;2023-07-30T05:39:13;100837.00;;;15.78;100.00
74529;BME280;63009;52.584;5.932;2023-07-30T05:41:38;100845.13;;;15.77;100.00
74529;BME280;63009;52.584;5.932;2023-07-30T05:44:03;100825.97;;;15.71;100.00
74529;BME280;63009;52.584;5.932;2023-07-30T05:46:28;100833.25;;;15.81;100.00
74529;BME280;63009;52.584;5.932;2023-07-30T05:48:54;100832.28;;;15.82;100.00
74529;BME280;63009;52.584;5.932;2023-07-30T05:51:19;100837.22;;;15.86;100.00
74529;BME280;63009;52.584;5.932;2023-07-30T05:53:44;100843.41;;;15.87;100.00
74529;BME280;63009;52.584;5.932;2023-07-30T05:56:10;100843.06;;;15.91;100.00
74529;BME280;63009;52.584;5.932;2023-07-30T05:58:37;100836.97;;;16.00;100.00
74529;BME280;63009;52.584;5.932;2023-07-30T06:01:03;100845.44;;;16.06;100.00
74529;BME280;63009;52.584;5.932;2023-07-30T06:03:28;100847.22;;;16.16;100.00
74529;BME280;63009;52.584;5.932;2023-07-30T06:05:53;100842.81;;;16.26;100.00
74529;BME280;63009;52.584;5.932;2023-07-30T06:08:19;100840.63;;;16.31;100.00
74529;BME280;63009;52.584;5.932;2023-07-30T06:10:44;100845.66;;;16.46;100.00
74529;BME280;63009;52.584;5.932;2023-07-30T06:13:09;100848.31;;;16.46;100.00
74529;BME280;63009;52.584;5.932;2023-07-30T06:15:34;100834.22;;;16.55;100.00
74529;BME280;63009;52.584;5.932;2023-07-30T06:18:03;100841.47;;;16.64;100.00
74529;BME280;63009;52.584;5.932;2023-07-30T06:20:28;100837.34;;;16.71;100.00
74529;BME280;63009;52.584;5.932;2023-07-30T06:22:53;100846.19;;;16.72;100.00
74529;BME280;63009;52.584;5.932;2023-07-30T06:25:19;100841.47;;;16.75;100.00
74529;BME280;63009;52.584;5.932;2023-07-30T06:27:44;100835.16;;;16.76;100.00
74529;BME280;63009;52.584;5.932;2023-07-30T06:30:10;100827.78;;;16.69;100.00
74529;BME280;63009;52.584;5.932;2023-07-30T06:32:36;100835.00;;;16.78;100.00
74529;BME280;63009;52.584;5.932;2023-07-30T06:35:01;100832.34;;;16.78;100.00
74529;BME280;63009;52.584;5.932;2023-07-30T06:37:28;100841.38;;;16.86;100.00
74529;BME280;63009;52.584;5.932;2023-07-30T06:39:53;100842.00;;;16.90;100.00
74529;BME280;63009;52.584;5.932;2023-07-30T06:42:18;100839.06;;;16.93;100.00
74529;BME280;63009;52.584;5.932;2023-07-30T06:44:44;100843.72;;;17.01;100.00
74529;BME280;63009;52.584;5.932;2023-07-30T06:47:09;100832.88;;;16.92;100.00
74529;BME280;63009;52.584;5.932;2023-07-30T06:49:34;100856.84;;;17.04;100.00
74529;BME280;63009;52.584;5.932;2023-07-30T06:52:00;100834.16;;;16.98;100.00
74529;BME280;63009;52.584;5.932;2023-07-30T06:54:25;100843.78;;;17.10;100.00
74529;BME280;63009;52.584;5.932;2023-07-30T06:56:50;100845.22;;;17.14;100.00
74529;BME280;63009;52.584;5.932;2023-07-30T06:59:15;100857.72;;;17.14;100.00
74529;BME280;63009;52.584;5.932;2023-07-30T07:01:41;100847.44;;;17.09;100.00
74529;BME280;63009;52.584;5.932;2023-07-30T07:04:06;100849.00;;;17.12;100.00
74529;BME280;63009;52.584;5.932;2023-07-30T07:06:31;100848.34;;;17.19;100.00
74529;BME280;63009;52.584;5.932;2023-07-30T07:08:56;100854.00;;;17.26;100.00
74529;BME280;63009;52.584;5.932;2023-07-30T07:11:22;100849.44;;;17.38;100.00
74529;BME280;63009;52.584;5.932;2023-07-30T07:13:47;100848.38;;;17.29;100.00
74529;BME280;63009;52.584;5.932;2023-07-30T07:16:12;100843.03;;;17.29;100.00
74529;BME280;63009;52.584;5.932;2023-07-30T07:18:38;100838.81;;;17.27;100.00
74529;BME280;63009;52.584;5.932;2023-07-30T07:21:03;100849.97;;;17.32;100.00
74529;BME280;63009;52.584;5.932;2023-07-30T07:23:28;100852.09;;;17.38;100.00
74529;BME280;63009;52.584;5.932;2023-07-30T07:25:53;100853.84;;;17.48;100.00
74529;BME280;63009;52.584;5.932;2023-07-30T07:28:19;100833.78;;;17.64;100.00
74529;BME280;63009;52.584;5.932;2023-07-30T07:30:44;100842.88;;;17.82;100.00
74529;BME280;63009;52.584;5.932;2023-07-30T07:33:10;100847.28;;;17.93;100.00
74529;BME280;63009;52.584;5.932;2023-07-30T07:35:37;100846.75;;;18.08;100.00
74529;BME280;63009;52.584;5.932;2023-07-30T07:38:03;100850.47;;;18.46;100.00
74529;BME280;63009;52.584;5.932;2023-07-30T07:40:28;100852.59;;;18.62;99.97
74529;BME280;63009;52.584;5.932;2023-07-30T07:42:54;100854.28;;;18.63;99.35
74529;BME280;63009;52.584;5.932;2023-07-30T07:45:20;100854.41;;;18.52;98.56
74529;BME280;63009;52.584;5.932;2023-07-30T07:47:45;100857.09;;;18.71;100.00
74529;BME280;63009;52.584;5.932;2023-07-30T07:50:10;100848.22;;;18.71;97.96
74529;BME280;63009;52.584;5.932;2023-07-30T07:52:35;100860.22;;;18.76;97.64
74529;BME280;63009;52.584;5.932;2023-07-30T07:55:01;100859.53;;;18.64;97.55
74529;BME280;63009;52.584;5.932;2023-07-30T07:57:26;100858.06;;;18.51;98.26
74529;BME280;63009;52.584;5.932;2023-07-30T07:59:52;100861.72;;;18.40;98.33
74529;BME280;63009;52.584;5.932;2023-07-30T08:02:17;100854.25;;;18.24;97.91
74529;BME280;63009;52.584;5.932;2023-07-30T08:04:43;100853.50;;;18.13;99.08
74529;BME280;63009;52.584;5.932;2023-07-30T08:07:08;100851.97;;;18.10;100.00
74529;BME280;63009;52.584;5.932;2023-07-30T08:09:33;100857.47;;;18.08;100.00
74529;BME280;63009;52.584;5.932;2023-07-30T08:11:59;100854.47;;;17.92;99.70
74529;BME280;63009;52.584;5.932;2023-07-30T08:14:26;100851.78;;;17.92;99.51
74529;BME280;63009;52.584;5.932;2023-07-30T08:16:51;100852.06;;;17.99;100.00
74529;BME280;63009;52.584;5.932;2023-07-30T08:19:16;100858.00;;;18.02;100.00
74529;BME280;63009;52.584;5.932;2023-07-30T08:21:42;100852.38;;;18.05;100.00
74529;BME280;63009;52.584;5.932;2023-07-30T08:24:07;100854.06;;;18.06;100.00
74529;BME280;63009;52.584;5.932;2023-07-30T08:26:32;100856.47;;;18.09;100.00
74529;BME280;63009;52.584;5.932;2023-07-30T08:28:58;100852.66;;;18.12;99.87
74529;BME280;63009;52.584;5.932;2023-07-30T08:31:23;100845.19;;;18.16;99.14
74529;BME280;63009;52.584;5.932;2023-07-30T08:33:48;100853.56;;;18.32;98.40
74529;BME280;63009;52.584;5.932;2023-07-30T08:36:13;100851.00;;;18.40;98.25
74529;BME280;63009;52.584;5.932;2023-07-30T08:38:39;100846.22;;;18.53;97.24
74529;BME280;63009;52.584;5.932;2023-07-30T08:41:04;100843.31;;;18.76;94.17
74529;BME280;63009;52.584;5.932;2023-07-30T08:43:30;100857.53;;;18.76;95.42
74529;BME280;63009;52.584;5.932;2023-07-30T08:45:56;100840.78;;;18.74;93.86
74529;BME280;63009;52.584;5.932;2023-07-30T08:48:21;100841.78;;;18.73;94.34
74529;BME280;63009;52.584;5.932;2023-07-30T08:50:48;100852.00;;;18.97;94.57
74529;BME280;63009;52.584;5.932;2023-07-30T08:53:14;100841.28;;;18.97;94.01
74529;BME280;63009;52.584;5.932;2023-07-30T08:55:40;100852.03;;;18.78;93.29
74529;BME280;63009;52.584;5.932;2023-07-30T08:58:07;100852.03;;;18.78;95.00
74529;BME280;63009;52.584;5.932;2023-07-30T09:00:36;100866.56;;;18.75;92.95
74529;BME280;63009;52.584;5.932;2023-07-30T09:03:03;100861.63;;;18.80;92.48
74529;BME280;63009;52.584;5.932;2023-07-30T09:05:29;100862.75;;;18.68;90.96
74529;BME280;63009;52.584;5.932;2023-07-30T09:07:58;100858.69;;;18.74;92.07
74529;BME280;63009;52.584;5.932;2023-07-30T09:10:24;100857.25;;;18.89;92.40
74529;BME280;63009;52.584;5.932;2023-07-30T09:12:55;100871.75;;;18.96;92.09
74529;BME280;63009;52.584;5.932;2023-07-30T09:15:29;100873.13;;;19.29;89.46
74529;BME280;63009;52.584;5.932;2023-07-30T09:17:56;100868.69;;;19.47;89.41
74529;BME280;63009;52.584;5.932;2023-07-30T09:20:21;100861.06;;;19.90;87.34
74529;BME280;63009;52.584;5.932;2023-07-30T09:22:46;100876.16;;;20.36;86.95
74529;BME280;63009;52.584;5.932;2023-07-30T09:25:14;100874.47;;;20.35;84.15
74529;BME280;63009;52.584;5.932;2023-07-30T09:27:41;100876.28;;;20.62;80.89
74529;BME280;63009;52.584;5.932;2023-07-30T09:30:07;100874.50;;;20.88;81.04
74529;BME280;63009;52.584;5.932;2023-07-30T09:32:33;100874.91;;;21.19;79.94
74529;BME280;63009;52.584;5.932;2023-07-30T09:35:10;100878.41;;;21.12;76.26
74529;BME280;63009;52.584;5.932;2023-07-30T09:37:37;100889.91;;;21.48;77.80
74529;BME280;63009;52.584;5.932;2023-07-30T09:40:08;100886.31;;;21.65;78.42
74529;BME280;63009;52.584;5.932;2023-07-30T09:42:37;100888.38;;;21.01;74.94
74529;BME280;63009;52.584;5.932;2023-07-30T09:45:06;100895.38;;;20.77;77.52
74529;BME280;63009;52.584;5.932;2023-07-30T09:47:37;100906.91;;;20.87;80.17
74529;BME280;63009;52.584;5.932;2023-07-30T09:50:02;100906.41;;;21.09;78.37
74529;BME280;63009;52.584;5.932;2023-07-30T09:52:29;100891.84;;;21.12;75.55
74529;BME280;63009;52.584;5.932;2023-07-30T09:54:56;100899.47;;;21.24;73.31
74529;BME280;63009;52.584;5.932;2023-07-30T09:57:22;100904.78;;;21.34;71.46
74529;BME280;63009;52.584;5.932;2023-07-30T09:59:47;100897.88;;;21.31;68.32
74529;BME280;63009;52.584;5.932;2023-07-30T10:02:13;100914.75;;;21.24;68.74
74529;BME280;63009;52.584;5.932;2023-07-30T10:04:43;100918.81;;;21.46;69.76
74529;BME280;63009;52.584;5.932;2023-07-30T10:07:14;100922.09;;;21.57;67.74
74529;BME280;63009;52.584;5.932;2023-07-30T10:09:43;100918.47;;;21.75;68.53
74529;BME280;63009;52.584;5.932;2023-07-30T10:12:16;100926.19;;;22.04;66.13
74529;BME280;63009;52.584;5.932;2023-07-30T10:14:43;100936.25;;;22.28;65.23
74529;BME280;63009;52.584;5.932;2023-07-30T10:17:11;100936.09;;;22.37;66.02
74529;BME280;63009;52.584;5.932;2023-07-30T10:19:37;100932.97;;;22.58;67.29
74529;BME280;63009;52.584;5.932;2023-07-30T10:24:56;100945.09;;;22.70;63.17
74529;BME280;63009;52.584;5.932;2023-07-30T10:27:27;100938.03;;;22.69;64.29
74529;BME280;63009;52.584;5.932;2023-07-30T10:30:31;100958.63;;;22.36;63.91
74529;BME280;63009;52.584;5.932;2023-07-30T10:33:00;100954.41;;;22.26;65.51
74529;BME280;63009;52.584;5.932;2023-07-30T10:35:43;100945.88;;;22.46;64.81
74529;BME280;63009;52.584;5.932;2023-07-30T10:38:19;100934.31;;;22.62;64.42
74529;BME280;63009;52.584;5.932;2023-07-30T10:41:09;100944.06;;;22.63;63.28
74529;BME280;63009;52.584;5.932;2023-07-30T10:43:43;100947.69;;;22.30;64.26
74529;BME280;63009;52.584;5.932;2023-07-30T10:46:12;100950.41;;;22.04;63.55
74529;BME280;63009;52.584;5.932;2023-07-30T10:48:42;100945.72;;;21.80;65.28
74529;BME280;63009;52.584;5.932;2023-07-30T10:51:13;100954.56;;;21.64;65.34
74529;BME280;63009;52.584;5.932;2023-07-30T10:53:39;100952.34;;;21.85;66.11
74529;BME280;63009;52.584;5.932;2023-07-30T10:56:07;100951.50;;;22.11;68.15
74529;BME280;63009;52.584;5.932;2023-07-30T10:58:35;100952.13;;;22.39;67.43
74529;BME280;63009;52.584;5.932;2023-07-30T11:01:02;100955.16;;;22.52;60.57
74529;BME280;63009;52.584;5.932;2023-07-30T11:03:28;100940.78;;;22.27;61.46
74529;BME280;63009;52.584;5.932;2023-07-30T11:05:55;100948.41;;;22.48;61.95
74529;BME280;63009;52.584;5.932;2023-07-30T11:08:41;100950.47;;;22.54;61.68
74529;BME280;63009;52.584;5.932;2023-07-30T11:11:09;100947.44;;;22.65;62.59
74529;BME280;63009;52.584;5.932;2023-07-30T11:13:39;100950.97;;;22.66;62.19
74529;BME280;63009;52.584;5.932;2023-07-30T11:16:09;100954.38;;;22.76;62.93
74529;BME280;63009;52.584;5.932;2023-07-30T11:18:36;100938.00;;;22.61;62.44
74529;BME280;63009;52.584;5.932;2023-07-30T11:21:10;100949.66;;;22.11;60.83
74529;BME280;63009;52.584;5.932;2023-07-30T11:23:37;100962.78;;;21.88;61.47
74529;BME280;63009;52.584;5.932;2023-07-30T11:26:04;100963.31;;;21.66;61.72
74529;BME280;63009;52.584;5.932;2023-07-30T11:28:31;100974.69;;;21.34;61.27
74529;BME280;63009;52.584;5.932;2023-07-30T11:31:11;100970.31;;;21.33;63.29
74529;BME280;63009;52.584;5.932;2023-07-30T11:33:39;100982.75;;;21.34;62.44
74529;BME280;63009;52.584;5.932;2023-07-30T11:36:07;100983.22;;;21.29;63.21
74529;BME280;63009;52.584;5.932;2023-07-30T11:38:33;100940.16;;;20.86;63.19
74529;BME280;63009;52.584;5.932;2023-07-30T11:40:59;100974.44;;;21.10;65.04
74529;BME280;63009;52.584;5.932;2023-07-30T11:43:25;100966.00;;;21.04;65.46
74529;BME280;63009;52.584;5.932;2023-07-30T11:46:06;100983.34;;;21.10;66.49
74529;BME280;63009;52.584;5.932;2023-07-30T11:48:32;100992.88;;;21.22;67.60
74529;BME280;63009;52.584;5.932;2023-07-30T11:50:58;100979.28;;;21.06;67.26
74529;BME280;63009;52.584;5.932;2023-07-30T11:53:43;100990.75;;;21.26;68.52
74529;BME280;63009;52.584;5.932;2023-07-30T11:56:15;100990.06;;;21.42;66.59
74529;BME280;63009;52.584;5.932;2023-07-30T11:58:41;100981.72;;;21.53;64.48
74529;BME280;63009;52.584;5.932;2023-07-30T12:01:06;100986.25;;;21.52;65.18
74529;BME280;63009;52.584;5.932;2023-07-30T12:03:32;100990.91;;;21.42;65.68
74529;BME280;63009;52.584;5.932;2023-07-30T12:05:57;100996.97;;;21.44;66.51
74529;BME280;63009;52.584;5.932;2023-07-30T12:08:25;100994.31;;;21.26;67.82
74529;BME280;63009;52.584;5.932;2023-07-30T12:10:51;100986.59;;;21.14;66.15
74529;BME280;63009;52.584;5.932;2023-07-30T12:13:19;100986.06;;;21.28;66.75
74529;BME280;63009;52.584;5.932;2023-07-30T12:15:51;100996.00;;;21.27;65.50
74529;BME280;63009;52.584;5.932;2023-07-30T12:18:17;101001.94;;;21.21;66.19
74529;BME280;63009;52.584;5.932;2023-07-30T12:20:43;101002.47;;;21.07;65.22
74529;BME280;63009;52.584;5.932;2023-07-30T12:23:08;101003.63;;;21.04;67.76
74529;BME280;63009;52.584;5.932;2023-07-30T12:25:33;100998.41;;;21.03;65.00
74529;BME280;63009;52.584;5.932;2023-07-30T12:27:59;101006.69;;;21.10;65.07
74529;BME280;63009;52.584;5.932;2023-07-30T12:30:25;101006.31;;;21.04;65.00
74529;BME280;63009;52.584;5.932;2023-07-30T12:32:51;100998.16;;;20.96;64.50
74529;BME280;63009;52.584;5.932;2023-07-30T12:35:17;100997.25;;;20.88;64.24
74529;BME280;63009;52.584;5.932;2023-07-30T12:37:42;101008.16;;;21.04;65.68
74529;BME280;63009;52.584;5.932;2023-07-30T12:40:08;101012.28;;;21.26;65.75
74529;BME280;63009;52.584;5.932;2023-07-30T12:42:33;101007.78;;;21.34;64.85